createdAt,value
2018-10-12T00:00:23.652Z,14.40
2018-10-12T00:02:52.208Z,14.40
2018-10-12T00:05:20.793Z,14.40
2018-10-12T00:07:49.346Z,14.50
2018-10-12T00:10:17.932Z,14.50
2018-10-12T00:12:46.476Z,14.40
2018-10-12T00:15:15.085Z,14.40
2018-10-12T00:17:43.643Z,14.30
2018-10-12T00:20:12.224Z,14.30
2018-10-12T00:22:40.802Z,14.30
2018-10-12T00:25:09.375Z,14.20
2018-10-12T00:27:37.911Z,14.20
2018-10-12T00:30:06.530Z,14.20
2018-10-12T00:32:35.113Z,14.20
2018-10-12T00:35:04.027Z,14.20
2018-10-12T00:37:32.640Z,14.20
2018-10-12T00:40:01.308Z,14.20
2018-10-12T00:42:29.895Z,14.10
2018-10-12T00:44:58.504Z,14.10
2018-10-12T00:47:27.071Z,14.10
2018-10-12T00:49:55.729Z,14.10
2018-10-12T00:52:24.288Z,14.10
2018-10-12T00:54:52.849Z,14.10
2018-10-12T00:57:21.450Z,14.00
2018-10-12T00:59:50.047Z,14.00
2018-10-12T01:02:18.619Z,14.00
2018-10-12T01:04:47.159Z,14.00
2018-10-12T01:07:15.753Z,14.10
2018-10-12T01:09:44.364Z,14.10
2018-10-12T01:12:24.330Z,14.10
2018-10-12T01:14:52.910Z,14.20
2018-10-12T01:17:21.506Z,14.20
2018-10-12T01:19:50.081Z,14.20
2018-10-12T01:22:18.683Z,14.20
2018-10-12T01:24:47.290Z,14.10
2018-10-12T01:27:15.874Z,14.10
2018-10-12T01:29:44.467Z,14.10
2018-10-12T01:32:18.127Z,14.10
2018-10-12T01:34:46.655Z,14.00
2018-10-12T01:37:15.508Z,14.00
2018-10-12T01:39:44.076Z,14.00
2018-10-12T01:42:13.156Z,14.00
2018-10-12T01:44:41.744Z,13.90
2018-10-12T01:47:10.426Z,14.00
2018-10-12T01:49:39.360Z,14.00
2018-10-12T01:52:09.162Z,14.10
2018-10-12T01:54:37.732Z,14.20
2018-10-12T01:57:06.881Z,14.20
2018-10-12T01:59:35.458Z,14.30
2018-10-12T02:02:04.162Z,14.20
2018-10-12T02:04:32.919Z,14.30
2018-10-12T02:07:01.965Z,14.30
2018-10-12T02:09:30.519Z,14.30
2018-10-12T02:11:59.296Z,14.30
2018-10-12T02:14:28.263Z,14.30
2018-10-12T02:16:56.846Z,14.30
2018-10-12T02:19:25.531Z,14.30
2018-10-12T02:21:54.121Z,14.30
2018-10-12T02:24:22.715Z,14.30
2018-10-12T02:26:51.327Z,14.40
2018-10-12T02:29:19.887Z,14.40
2018-10-12T02:31:48.440Z,14.40
2018-10-12T02:34:17.060Z,14.40
2018-10-12T02:36:45.605Z,14.40
2018-10-12T02:39:15.438Z,14.30
2018-10-12T02:41:43.970Z,14.30
2018-10-12T02:44:12.872Z,14.30
2018-10-12T02:46:41.484Z,14.30
2018-10-12T02:49:10.091Z,14.20
2018-10-12T02:51:38.653Z,14.20
2018-10-12T02:54:07.261Z,14.30
2018-10-12T02:56:35.833Z,14.30
2018-10-12T02:59:04.435Z,14.30
2018-10-12T03:01:32.991Z,14.40
2018-10-12T03:04:01.584Z,14.40
2018-10-12T03:06:30.151Z,14.40
2018-10-12T03:08:58.741Z,14.40
2018-10-12T03:11:27.315Z,14.40
2018-10-12T03:13:55.879Z,14.40
2018-10-12T03:16:24.442Z,14.40
2018-10-12T03:18:53.012Z,14.40
2018-10-12T03:21:21.558Z,14.30
2018-10-12T03:23:50.125Z,14.30
2018-10-12T03:26:18.711Z,14.20
2018-10-12T03:28:47.300Z,14.20
2018-10-12T03:31:15.996Z,14.10
2018-10-12T03:33:44.630Z,14.10
2018-10-12T03:36:13.265Z,14.10
2018-10-12T03:38:41.952Z,14.10
2018-10-12T03:41:10.531Z,14.10
2018-10-12T03:43:39.159Z,14.10
2018-10-12T03:46:07.831Z,14.00
2018-10-12T03:48:36.426Z,13.90
2018-10-12T03:51:05.013Z,13.80
2018-10-12T03:53:33.607Z,13.70
2018-10-12T03:56:02.188Z,13.70
2018-10-12T03:58:30.781Z,13.60
2018-10-12T04:00:59.351Z,13.60
2018-10-12T04:03:27.928Z,13.50
2018-10-12T04:05:56.461Z,13.50
2018-10-12T04:08:25.035Z,13.50
2018-10-12T04:10:53.576Z,13.60
2018-10-12T04:13:22.149Z,13.70
2018-10-12T04:15:50.679Z,13.70
2018-10-12T04:18:19.362Z,13.70
2018-10-12T04:20:47.933Z,13.70
2018-10-12T04:23:16.521Z,13.70
2018-10-12T04:25:45.157Z,13.70
2018-10-12T04:28:13.844Z,13.70
2018-10-12T04:30:42.442Z,13.70
2018-10-12T04:33:11.082Z,13.70
2018-10-12T04:35:39.644Z,13.70
2018-10-12T04:38:08.224Z,13.80
2018-10-12T04:41:14.225Z,13.80
2018-10-12T04:43:43.304Z,13.80
2018-10-12T04:46:14.532Z,13.80
2018-10-12T04:48:44.556Z,13.90
2018-10-12T04:51:31.932Z,13.90
2018-10-12T04:54:00.715Z,13.80
2018-10-12T04:56:29.324Z,13.80
2018-10-12T04:58:57.969Z,13.70
2018-10-12T05:01:26.559Z,13.60
2018-10-12T05:03:55.188Z,13.50
2018-10-12T05:06:23.797Z,13.50
2018-10-12T05:08:52.374Z,13.40
2018-10-12T05:11:20.955Z,13.50
2018-10-12T05:13:49.561Z,13.50
2018-10-12T05:16:18.558Z,13.60
2018-10-12T05:18:47.095Z,13.60
2018-10-12T05:21:15.658Z,13.70
2018-10-12T05:23:44.203Z,13.80
2018-10-12T05:26:13.143Z,13.80
2018-10-12T05:28:41.744Z,13.80
2018-10-12T05:31:10.361Z,13.80
2018-10-12T05:33:39.099Z,13.80
2018-10-12T05:36:07.845Z,13.80
2018-10-12T05:38:36.417Z,13.70
2018-10-12T05:41:05.031Z,13.70
2018-10-12T05:43:33.744Z,13.70
2018-10-12T05:46:02.303Z,13.80
2018-10-12T05:48:42.290Z,13.80
2018-10-12T05:51:12.103Z,13.80
2018-10-12T05:53:40.749Z,13.90
2018-10-12T05:56:09.420Z,13.90
2018-10-12T05:58:38.778Z,13.90
2018-10-12T06:01:07.713Z,14.00
2018-10-12T06:03:36.322Z,14.00
2018-10-12T06:06:04.913Z,14.10
2018-10-12T06:08:33.868Z,14.20
2018-10-12T06:11:02.450Z,14.20
2018-10-12T06:13:30.997Z,14.30
2018-10-12T06:15:59.669Z,14.40
2018-10-12T06:18:28.217Z,14.60
2018-10-12T06:20:56.764Z,14.70
2018-10-12T06:23:25.349Z,14.80
2018-10-12T06:25:53.935Z,14.90
2018-10-12T06:28:22.497Z,15.10
2018-10-12T06:30:51.067Z,15.10
2018-10-12T06:33:19.623Z,15.30
2018-10-12T06:35:48.208Z,15.30
2018-10-12T06:38:16.763Z,15.50
2018-10-12T06:40:45.336Z,15.60
2018-10-12T06:43:14.104Z,15.70
2018-10-12T06:45:42.723Z,15.80
2018-10-12T06:48:11.320Z,16.00
2018-10-12T06:50:40.936Z,16.10
2018-10-12T06:53:09.620Z,16.20
2018-10-12T06:55:38.262Z,16.30
2018-10-12T06:58:07.301Z,16.40
2018-10-12T07:00:35.957Z,16.50
2018-10-12T07:03:04.654Z,16.50
2018-10-12T07:05:33.336Z,16.50
2018-10-12T07:08:05.136Z,16.60
2018-10-12T07:10:33.707Z,16.60
2018-10-12T07:13:02.501Z,16.60
2018-10-12T07:15:31.075Z,16.60
2018-10-12T07:17:59.661Z,16.60
2018-10-12T07:20:28.224Z,16.70
2018-10-12T07:22:56.789Z,16.70
2018-10-12T07:25:25.320Z,16.70
2018-10-12T07:27:53.966Z,16.80
2018-10-12T07:30:22.552Z,16.80
2018-10-12T07:32:51.120Z,16.80
2018-10-12T07:35:19.716Z,16.90
2018-10-12T07:37:48.447Z,17.00
2018-10-12T07:40:16.965Z,17.00
2018-10-12T07:42:45.532Z,17.00
2018-10-12T07:45:14.095Z,17.10
2018-10-12T07:47:42.733Z,17.10
2018-10-12T07:50:11.385Z,17.20
2018-10-12T07:52:39.941Z,17.30
2018-10-12T07:55:08.563Z,17.40
2018-10-12T07:57:37.159Z,17.50
2018-10-12T08:00:06.266Z,17.50
2018-10-12T08:02:34.759Z,17.60
2018-10-12T08:05:03.653Z,17.70
2018-10-12T08:07:32.257Z,17.80
2018-10-12T08:10:00.876Z,17.90
2018-10-12T08:12:29.451Z,18.00
2018-10-12T08:14:58.005Z,18.10
2018-10-12T08:17:26.603Z,18.10
2018-10-12T08:19:55.248Z,18.20
2018-10-12T08:22:23.944Z,18.30
2018-10-12T08:24:52.526Z,18.30
2018-10-12T08:27:21.472Z,18.40
2018-10-12T08:29:50.028Z,18.50
2018-10-12T08:32:18.676Z,18.60
2018-10-12T08:34:47.237Z,18.70
2018-10-12T08:37:17.935Z,18.80
2018-10-12T08:39:46.923Z,18.90
2018-10-12T08:42:15.557Z,19.00
2018-10-12T08:44:44.152Z,19.10
2018-10-12T08:47:12.749Z,19.20
2018-10-12T08:49:41.294Z,19.20
2018-10-12T08:52:09.876Z,19.30
2018-10-12T08:54:38.509Z,19.40
2018-10-12T08:57:07.128Z,19.40
2018-10-12T08:59:35.654Z,19.50
2018-10-12T09:02:04.287Z,19.60
2018-10-12T09:04:32.808Z,19.70
2018-10-12T09:07:01.428Z,19.80
2018-10-12T09:09:30.028Z,19.90
2018-10-12T09:11:58.571Z,20.00
2018-10-12T09:14:27.183Z,20.10
2018-10-12T09:16:55.751Z,20.20
2018-10-12T09:19:24.366Z,20.30
2018-10-12T09:21:53.014Z,20.40
2018-10-12T09:24:21.568Z,20.40
2018-10-12T09:26:50.164Z,20.50
2018-10-12T09:29:18.732Z,20.60
2018-10-12T09:31:47.322Z,20.70
2018-10-12T09:34:15.900Z,20.80
2018-10-12T09:36:44.730Z,20.90
2018-10-12T09:39:13.282Z,21.00
2018-10-12T09:41:41.872Z,21.10
2018-10-12T09:44:10.779Z,21.20
2018-10-12T09:46:39.316Z,21.20
2018-10-12T09:49:08.481Z,21.30
2018-10-12T09:51:37.362Z,21.40
2018-10-12T09:54:05.976Z,21.50
2018-10-12T09:56:34.524Z,21.60
2018-10-12T09:59:03.086Z,21.70
2018-10-12T10:01:37.001Z,21.70
2018-10-12T10:04:10.972Z,21.80
2018-10-12T10:06:39.505Z,21.90
2018-10-12T10:09:08.133Z,22.00
2018-10-12T10:11:36.713Z,22.10
2018-10-12T10:14:05.259Z,22.20
2018-10-12T10:16:33.811Z,22.30
2018-10-12T10:19:02.681Z,22.40
2018-10-12T10:21:31.224Z,22.60
2018-10-12T10:23:59.787Z,23.00
2018-10-12T10:26:28.405Z,23.50
2018-10-12T10:28:56.936Z,24.00
2018-10-12T10:31:25.472Z,24.50
2018-10-12T10:33:54.045Z,25.20
2018-10-12T10:36:22.563Z,25.70
2018-10-12T10:38:51.162Z,26.30
2018-10-12T10:41:19.808Z,26.80
2018-10-12T10:43:48.690Z,27.30
2018-10-12T10:46:17.293Z,27.80
2018-10-12T10:48:45.868Z,28.30
2018-10-12T10:51:14.737Z,28.80
2018-10-12T10:53:43.369Z,29.20
2018-10-12T10:56:11.862Z,29.60
2018-10-12T10:58:40.431Z,30.00
2018-10-12T11:01:09.067Z,30.50
2018-10-12T11:03:37.624Z,31.00
2018-10-12T11:06:06.565Z,31.50
2018-10-12T11:08:35.100Z,32.00
2018-10-12T11:11:03.689Z,32.40
2018-10-12T11:13:32.262Z,32.80
2018-10-12T11:16:00.789Z,33.10
2018-10-12T11:18:29.341Z,33.40
2018-10-12T11:20:57.875Z,33.60
2018-10-12T11:23:26.441Z,33.90
2018-10-12T11:25:55.068Z,34.30
2018-10-12T11:28:23.749Z,34.70
2018-10-12T11:30:52.400Z,35.10
2018-10-12T11:33:20.981Z,35.50
2018-10-12T11:35:49.540Z,35.70
2018-10-12T11:38:18.080Z,36.00
2018-10-12T11:40:46.682Z,36.20
2018-10-12T11:43:28.888Z,36.30
2018-10-12T11:45:58.053Z,36.60
2018-10-12T11:48:26.642Z,36.80
2018-10-12T11:50:55.234Z,37.10
2018-10-12T11:53:24.552Z,37.20
2018-10-12T11:55:53.152Z,37.20
2018-10-12T11:58:21.720Z,37.20
2018-10-12T12:00:50.323Z,37.20
2018-10-12T12:03:18.910Z,37.10
2018-10-12T12:05:47.472Z,37.10
2018-10-12T12:08:16.020Z,37.10
2018-10-12T12:10:44.572Z,37.00
2018-10-12T12:13:13.111Z,36.70
2018-10-12T12:15:41.661Z,36.50
2018-10-12T12:18:10.221Z,36.40
2018-10-12T12:20:39.156Z,36.30
2018-10-12T12:23:07.695Z,36.50
2018-10-12T12:25:36.253Z,36.70
2018-10-12T12:28:04.808Z,36.90
2018-10-12T12:30:33.352Z,37.10
2018-10-12T12:33:01.916Z,37.00
2018-10-12T12:35:30.818Z,36.70
2018-10-12T12:37:59.046Z,36.60
2018-10-12T12:40:27.618Z,36.70
2018-10-12T12:42:56.211Z,36.80
2018-10-12T12:45:24.935Z,37.10
2018-10-12T12:47:53.648Z,37.50
2018-10-12T12:50:22.096Z,37.90
2018-10-12T12:52:50.642Z,38.40
2018-10-12T12:55:19.257Z,38.80
2018-10-12T12:57:47.824Z,38.80
2018-10-12T13:00:17.410Z,38.60
2018-10-12T13:02:45.999Z,38.50
2018-10-12T13:05:14.636Z,38.40
2018-10-12T13:07:43.181Z,38.40
2018-10-12T13:10:11.786Z,38.60
2018-10-12T13:12:40.325Z,38.60
2018-10-12T13:15:08.917Z,38.50
2018-10-12T13:17:37.495Z,38.70
2018-10-12T13:20:06.164Z,39.00
2018-10-12T13:22:34.774Z,39.10
2018-10-12T13:25:03.335Z,39.30
2018-10-12T13:27:31.989Z,39.40
2018-10-12T13:30:00.550Z,39.40
2018-10-12T13:32:29.846Z,39.30
2018-10-12T13:34:58.374Z,39.10
2018-10-12T13:37:27.062Z,38.90
2018-10-12T13:39:55.648Z,38.80
2018-10-12T13:42:24.199Z,38.90
2018-10-12T13:44:52.779Z,39.00
2018-10-12T13:47:21.359Z,39.20
2018-10-12T13:49:49.900Z,39.30
2018-10-12T13:52:18.471Z,39.40
2018-10-12T13:54:47.054Z,39.30
2018-10-12T13:57:15.648Z,39.10
2018-10-12T13:59:44.272Z,38.80
2018-10-12T14:02:12.861Z,38.60
2018-10-12T14:04:41.463Z,37.90
2018-10-12T14:07:10.048Z,37.20
2018-10-12T14:09:38.671Z,36.40
2018-10-12T14:12:07.682Z,35.70
2018-10-12T14:14:36.266Z,35.30
2018-10-12T14:17:04.841Z,34.90
2018-10-12T14:19:33.537Z,34.40
2018-10-12T14:22:02.010Z,34.00
2018-10-12T14:24:30.575Z,33.50
2018-10-12T14:26:59.148Z,33.10
2018-10-12T14:29:27.722Z,32.80
2018-10-12T14:31:56.295Z,32.70
2018-10-12T14:34:24.835Z,32.60
2018-10-12T14:36:53.519Z,32.90
2018-10-12T14:39:22.418Z,33.50
2018-10-12T14:41:51.010Z,34.50
2018-10-12T14:44:19.770Z,35.50
2018-10-12T14:46:48.380Z,36.60
2018-10-12T14:49:18.120Z,37.40
2018-10-12T14:51:47.749Z,37.90
2018-10-12T14:54:17.321Z,38.30
2018-10-12T14:56:47.343Z,38.70
2018-10-12T14:59:16.711Z,39.30
2018-10-12T15:01:48.507Z,39.90
2018-10-12T15:04:18.488Z,40.40
2018-10-12T15:06:49.851Z,40.90
2018-10-12T15:09:21.026Z,41.20
2018-10-12T15:11:49.697Z,41.30
2018-10-12T15:14:22.740Z,41.20
2018-10-12T15:16:51.323Z,41.00
2018-10-12T15:19:19.944Z,40.60
2018-10-12T15:21:48.644Z,40.10
2018-10-12T15:24:17.196Z,39.30
2018-10-12T15:26:45.783Z,39.00
2018-10-12T15:29:14.318Z,38.50
2018-10-12T15:31:42.880Z,37.80
2018-10-12T15:34:11.437Z,37.30
2018-10-12T15:36:40.028Z,36.70
2018-10-12T15:39:08.693Z,36.10
2018-10-12T15:41:37.400Z,35.70
2018-10-12T15:44:05.948Z,35.20
2018-10-12T15:46:34.474Z,34.90
2018-10-12T15:49:03.181Z,34.50
2018-10-12T15:51:31.824Z,34.20
2018-10-12T15:54:03.046Z,33.80
2018-10-12T15:56:34.190Z,33.50
2018-10-12T15:59:04.028Z,33.10
2018-10-12T16:01:33.680Z,32.70
2018-10-12T16:04:04.343Z,32.10
2018-10-12T16:06:34.226Z,31.60
2018-10-12T16:09:04.512Z,31.00
2018-10-12T16:11:34.080Z,30.40
2018-10-12T16:14:03.868Z,30.00
2018-10-12T16:16:33.396Z,29.50
2018-10-12T16:19:02.908Z,29.10
2018-10-12T16:21:32.527Z,28.60
2018-10-12T16:24:12.484Z,28.30
2018-10-12T16:26:41.760Z,27.90
2018-10-12T16:29:11.427Z,27.50
2018-10-12T16:31:40.929Z,27.20
2018-10-12T16:34:09.559Z,26.80
2018-10-12T16:36:39.337Z,26.50
2018-10-12T16:39:09.816Z,26.20
2018-10-12T16:41:39.900Z,25.90
2018-10-12T16:44:09.705Z,25.60
2018-10-12T16:46:39.089Z,25.30
2018-10-12T16:49:08.660Z,25.00
2018-10-12T16:51:38.601Z,24.70
2018-10-12T16:54:15.620Z,24.50
2018-10-12T16:56:45.419Z,24.20
2018-10-12T16:59:15.081Z,24.00
2018-10-12T17:01:59.663Z,23.70
2018-10-12T17:04:28.311Z,23.50
2018-10-12T17:06:56.855Z,23.30
2018-10-12T17:09:25.415Z,23.10
2018-10-12T17:11:53.966Z,22.90
2018-10-12T17:14:22.550Z,22.70
2018-10-12T17:36:45.869Z,21.30
2018-10-12T17:39:14.565Z,21.20
2018-10-12T17:41:43.166Z,21.00
2018-10-12T17:44:11.743Z,21.00
2018-10-12T17:46:40.316Z,20.80
2018-10-12T17:49:08.928Z,20.70
2018-10-12T17:51:37.792Z,20.70
2018-10-12T17:54:06.496Z,20.60
2018-10-12T17:56:35.054Z,20.50
2018-10-12T17:59:04.260Z,20.40
2018-10-12T18:01:32.925Z,20.30
2018-10-12T18:04:01.531Z,20.20
2018-10-12T18:06:30.205Z,20.20
2018-10-12T18:08:58.844Z,20.10
2018-10-12T18:11:27.398Z,20.00
2018-10-12T18:13:56.022Z,20.00
2018-10-12T18:16:26.498Z,19.90
2018-10-12T18:18:55.101Z,19.90
2018-10-12T18:21:23.634Z,19.80
2018-10-12T18:23:52.226Z,19.70
2018-10-12T18:26:20.755Z,19.60
2018-10-12T18:28:49.718Z,19.60
2018-10-12T18:31:19.044Z,19.50
2018-10-12T18:33:47.615Z,19.40
2018-10-12T18:36:16.232Z,19.40
2018-10-12T18:38:44.847Z,19.30
2018-10-12T18:41:13.473Z,19.20
2018-10-12T18:43:42.091Z,19.20
2018-10-12T18:46:11.493Z,19.10
2018-10-12T18:48:40.132Z,19.10
2018-10-12T18:51:08.797Z,19.00
2018-10-12T18:53:37.370Z,19.00
2018-10-12T18:56:05.948Z,18.90
2018-10-12T18:58:34.552Z,18.80
2018-10-12T19:01:03.326Z,18.80
2018-10-12T19:03:31.877Z,18.70
2018-10-12T19:06:00.451Z,18.60
2018-10-12T19:08:29.037Z,18.60
2018-10-12T19:10:57.632Z,18.50
2018-10-12T19:13:26.239Z,18.40
2018-10-12T19:15:54.802Z,18.40
2018-10-12T19:18:24.114Z,18.30
2018-10-12T19:20:52.928Z,18.30
2018-10-12T19:23:21.526Z,18.20
2018-10-12T19:25:50.067Z,18.20
2018-10-12T19:28:18.684Z,18.10
2018-10-12T19:30:47.269Z,18.10
2018-10-12T19:33:15.837Z,18.00
2018-10-12T19:35:44.419Z,18.00
2018-10-12T19:38:13.008Z,17.90
2018-10-12T19:40:42.287Z,17.90
2018-10-12T19:43:10.888Z,17.80
2018-10-12T19:45:39.700Z,17.80
2018-10-12T19:48:08.437Z,17.70
2018-10-12T19:50:37.016Z,17.70
2018-10-12T19:53:05.626Z,17.60
2018-10-12T19:55:34.379Z,17.60
2018-10-12T19:58:02.918Z,17.50
2018-10-12T20:00:31.533Z,17.50
2018-10-12T20:03:00.083Z,17.50
2018-10-12T20:05:28.731Z,17.40
2018-10-12T20:07:57.354Z,17.40
2018-10-12T20:10:26.261Z,17.40
2018-10-12T20:12:54.774Z,17.40
2018-10-12T20:15:23.665Z,17.40
2018-10-12T20:17:52.715Z,17.30
2018-10-12T20:20:22.024Z,17.30
2018-10-12T20:22:50.838Z,17.20
2018-10-12T20:25:19.549Z,17.10
2018-10-12T20:27:48.091Z,17.10
2018-10-12T20:30:16.662Z,17.00
2018-10-12T20:32:45.346Z,17.00
2018-10-12T20:35:13.990Z,17.00
2018-10-12T20:37:42.552Z,16.90
2018-10-12T20:40:13.773Z,16.90
2018-10-12T20:42:43.097Z,16.90
2018-10-12T20:45:11.682Z,16.80
2018-10-12T20:47:40.351Z,16.80
2018-10-12T20:50:09.941Z,16.70
2018-10-12T20:52:38.502Z,16.70
2018-10-12T20:55:07.465Z,16.70
2018-10-12T20:57:40.251Z,16.60
2018-10-12T21:00:08.876Z,16.60
2018-10-12T21:02:37.428Z,16.60
2018-10-12T21:05:07.256Z,16.50
2018-10-12T21:07:35.931Z,16.50
2018-10-12T21:10:04.521Z,16.40
2018-10-12T21:12:33.123Z,16.40
2018-10-12T21:15:01.740Z,16.40
2018-10-12T21:17:30.329Z,16.50
2018-10-12T21:19:59.223Z,16.50
2018-10-12T21:22:27.834Z,16.50
2018-10-12T21:24:56.411Z,16.50
2018-10-12T21:27:25.223Z,16.50
2018-10-12T21:29:53.757Z,16.40
2018-10-12T21:32:22.865Z,16.40
2018-10-12T21:34:51.408Z,16.30
2018-10-12T21:37:19.972Z,16.30
2018-10-12T21:39:48.524Z,16.30
2018-10-12T21:42:17.084Z,16.30
2018-10-12T21:44:45.635Z,16.30
2018-10-12T21:47:14.221Z,16.30
2018-10-12T21:49:42.781Z,16.30
2018-10-12T21:52:11.396Z,16.30
2018-10-12T21:54:40.071Z,16.40
2018-10-12T21:57:08.660Z,16.40
2018-10-12T21:59:37.239Z,16.40
2018-10-12T22:02:05.807Z,16.30
2018-10-12T22:04:34.323Z,16.40
2018-10-12T22:07:02.962Z,16.30
2018-10-12T22:09:31.506Z,16.40
2018-10-12T22:12:00.077Z,16.30
2018-10-12T22:14:28.661Z,16.30
2018-10-12T22:16:57.233Z,16.30
2018-10-12T22:19:25.764Z,16.30
2018-10-12T22:21:54.323Z,16.40
2018-10-12T22:24:22.880Z,16.40
2018-10-12T22:26:51.445Z,16.50
2018-10-12T22:29:19.971Z,16.50
2018-10-12T22:31:48.568Z,16.50
2018-10-12T22:34:17.161Z,16.50
2018-10-12T22:36:45.733Z,16.50
2018-10-12T22:39:14.283Z,16.50
2018-10-12T22:41:42.838Z,16.40
2018-10-12T22:44:11.386Z,16.40
2018-10-12T22:46:39.913Z,16.40
2018-10-12T22:49:08.487Z,16.30
2018-10-12T22:51:37.045Z,16.30
2018-10-12T22:54:05.592Z,16.20
2018-10-12T22:56:34.129Z,16.20
2018-10-12T22:59:02.761Z,16.10
2018-10-12T23:01:31.361Z,16.00
2018-10-12T23:04:00.004Z,16.00
2018-10-12T23:06:28.672Z,15.90
2018-10-12T23:08:57.388Z,15.80
2018-10-12T23:11:25.910Z,15.70
2018-10-12T23:13:54.452Z,15.60
2018-10-12T23:16:23.012Z,15.50
2018-10-12T23:18:51.537Z,15.40
2018-10-12T23:21:20.098Z,15.40
2018-10-12T23:23:48.634Z,15.30
2018-10-12T23:26:17.200Z,15.20
2018-10-12T23:28:45.762Z,15.20
2018-10-12T23:31:14.304Z,15.10
2018-10-12T23:33:54.265Z,15.10
2018-10-12T23:36:22.812Z,15.00
2018-10-12T23:38:51.374Z,15.00
2018-10-12T23:41:19.912Z,14.90
2018-10-12T23:43:50.534Z,14.90
2018-10-12T23:46:19.208Z,14.80
2018-10-12T23:48:47.841Z,14.80
2018-10-12T23:51:16.431Z,14.70
2018-10-12T23:53:44.990Z,14.70
2018-10-12T23:56:13.564Z,14.60
2018-10-12T23:58:42.480Z,14.60
